ADDS METAR Data INFO
IDs: Format: Raw Decoded Include TAF

Data at: 0511 UTC 22 Jul 2017

KGLE 220455Z AUTO 12004KT 10SM CLR 27/21 A2998 RMK AO2 T02650210
KGLE 220435Z AUTO 13004KT 10SM CLR 27/21 A2998 RMK AO2 T02740210
KGLE 220415Z AUTO 12006KT 10SM CLR 28/21 A2998 RMK AO2 T02800207
KGLE 220355Z AUTO 12007KT 10SM CLR 29/21 A2998 RMK AO2 T02850205
KGLE 220335Z AUTO 12007KT 10SM CLR 29/20 A2997 RMK AO2 T02860204
KGLE 220315Z AUTO 11007KT 10SM CLR 29/20 A2996 RMK AO2 T02880203
KGLE 220255Z AUTO 10007KT 10SM CLR 29/20 A2996 RMK AO2 T02910201
KGLE 220235Z AUTO 10006KT 10SM CLR 30/20 A2995 RMK AO2 T02960201
KGLE 220215Z AUTO 11006KT 10SM CLR 30/20 A2994 RMK AO2 T03040201
KGLE 220155Z AUTO 10007KT 10SM CLR 31/20 A2993 RMK AO2 T03100202
KGLE 220135Z AUTO 10007KT 10SM CLR 32/20 A2992 RMK AO2 T03150203
KGLE 220115Z AUTO 10010KT 10SM CLR 32/20 A2992 RMK AO2 T03210203
KGLE 220055Z AUTO 10009KT 10SM CLR 33/20 A2991 RMK AO2 T03290204
KGLE 220035Z AUTO 11010KT 10SM CLR 34/20 A2991 RMK AO2 T03360203
KGLE 220015Z AUTO 11010KT 10SM CLR 35/19 A2991 RMK AO2 T03450186
KGLE 212355Z AUTO 11009KT 10SM CLR 35/20 A2991 RMK AO2 T03490195 10366 20340
KGLE 212335Z AUTO 11008KT 10SM CLR 35/20 A2992 RMK AO2 T03510201
KGLE 212315Z AUTO 14009G14KT 10SM CLR 35/20 A2992 RMK AO2 T03540202
KGLE 212255Z AUTO 13007KT 10SM CLR 36/21 A2993 RMK AO2 T03560206
KGLE 212235Z AUTO 12006KT 10SM CLR 36/20 A2993 RMK AO2 T03560201
KGLE 212215Z AUTO 12011G15KT 10SM CLR 36/20 A2994 RMK AO2 T03590204
KGLE 212155Z AUTO 12009KT 10SM SCT065 SCT090 36/21 A2995 RMK AO2 T03570208
KGLE 212135Z AUTO 15005KT 10SM BKN065 BKN090 36/21 A2995 RMK AO2 T03590205
KGLE 212115Z AUTO 17006KT 10SM SCT065 36/20 A2995 RMK AO2 T03630202
KGLE 212055Z AUTO 13010KT 10SM SCT065 36/21 A2996 RMK AO2 T03630212
KGLE 212035Z AUTO 16008KT 130V190 10SM CLR 36/21 A2997 RMK AO2 T03590211
KGLE 212015Z AUTO 13010KT 120V180 10SM SCT060 SCT075 SCT095 36/22 A2998 RMK AO2 T03590215
KGLE 211955Z AUTO 17008G15KT 10SM SCT060 BKN085 35/21 A2998 RMK AO2 T03490207
KGLE 211935Z AUTO 13008KT 10SM SCT060 BKN075 BKN085 35/21 A2999 RMK AO2 T03460207
KGLE 211915Z AUTO 16008G14KT 130V190 10SM SCT060 36/22 A3000 RMK AO2 T03590219
KGLE 211855Z AUTO 18010G16KT 10SM CLR 36/21 A3000 RMK AO2 T03550213
KGLE 211835Z AUTO 15009G15KT 10SM CLR 35/22 A3000 RMK AO2 T03540218
KGLE 211815Z AUTO 18010G15KT 10SM CLR 35/21 A3001 RMK AO2 T03500212
KGLE 211755Z AUTO 14011KT 10SM CLR 35/22 A3001 RMK AO2 T03480215 10348 20235
KGLE 211735Z AUTO 16008KT 10SM CLR 35/22 A3002 RMK AO2 T03450218
KGLE 211715Z AUTO 14010G15KT 10SM CLR 34/22 A3002 RMK AO2 T03420218
KGLE 211655Z AUTO 19008G15KT 10SM CLR 34/22 A3003 RMK AO2 T03420220
KGLE 211635Z AUTO 16010KT 10SM CLR 34/22 A3004 RMK AO2 T03350219
KGLE 211615Z AUTO 18010KT 10SM CLR 33/22 A3004 RMK AO2 T03310222
KGLE 211555Z AUTO 16009KT 10SM CLR 33/22 A3004 RMK AO2 T03260223
KGLE 211535Z AUTO 17008KT 10SM CLR 32/23 A3005 RMK AO2 T03200225
KGLE 211515Z AUTO 17010KT 10SM CLR 32/22 A3005 RMK AO2 T03150224
KGLE 211455Z AUTO 16009KT 10SM CLR 31/22 A3005 RMK AO2 T03060223
KGLE 211435Z AUTO 16011KT 10SM CLR 30/22 A3005 RMK AO2 T03030221
KGLE 211415Z AUTO 17010KT 10SM CLR 30/22 A3005 RMK AO2 T02980224
KGLE 211355Z AUTO 16008KT 10SM CLR 29/22 A3005 RMK AO2 T02870223
KGLE 211335Z AUTO 15009KT 10SM CLR 28/22 A3005 RMK AO2 T02810224
KGLE 211315Z AUTO 14006KT 10SM CLR 27/23 A3005 RMK AO2 T02710225
KGLE 211255Z AUTO 14005KT 10SM CLR 26/22 A3005 RMK AO2 T02570223
KGLE 211235Z AUTO 13004KT 10SM CLR 25/22 A3004 RMK AO2 T02470220
KGLE 211215Z AUTO 13004KT 10SM CLR 24/22 A3004 RMK AO2 T02380215
KGLE 211155Z AUTO 14003KT 10SM CLR 24/21 A3004 RMK AO2 T02350210 10253 20231
KGLE 211135Z AUTO 12003KT 10SM CLR 23/21 A3003 RMK AO2 T02310207
KGLE 211115Z AUTO 13003KT 10SM CLR 23/21 A3003 RMK AO2 T02330207
KGLE 211055Z AUTO 11003KT 10SM CLR 24/21 A3002 RMK AO2 T02380208
KGLE 211035Z AUTO 11003KT 10SM CLR 24/21 A3002 RMK AO2 T02400206
KGLE 211015Z AUTO 12003KT 10SM CLR 24/21 A3001 RMK AO2 T02440207
KGLE 210955Z AUTO 11003KT 10SM CLR 25/21 A3001 RMK AO2 T02470207
KGLE 210935Z AUTO 00000KT 10SM CLR 25/21 A3001 RMK AO2 T02450207
KGLE 210915Z AUTO 00000KT 10SM CLR 25/21 A3001 RMK AO2 T02470207
KGLE 210855Z AUTO 00000KT 10SM CLR 25/21 A3001 RMK AO2 T02510208
KGLE 210835Z AUTO 00000KT 10SM CLR 25/21 A3002 RMK AO2 T02500210
KGLE 210815Z AUTO 00000KT 10SM CLR 25/21 A3002 RMK AO2 T02480211
KGLE 210755Z AUTO 00000KT 10SM CLR 25/21 A3003 RMK AO2 T02510211
KGLE 210735Z AUTO 00000KT 10SM CLR 25/21 A3002 RMK AO2 T02500210
KGLE 210715Z AUTO 00000KT 10SM CLR 25/21 A3003 RMK AO2 T02500209
KGLE 210655Z AUTO 00000KT 10SM CLR 25/21 A3004 RMK AO2 T02510209
KGLE 210635Z AUTO 00000KT 10SM CLR 25/21 A3004 RMK AO2 T02500209
KGLE 210615Z AUTO 00000KT 10SM CLR 25/21 A3004 RMK AO2 T02470210
KGLE 210555Z AUTO 12003KT 10SM CLR 25/21 A3004 RMK AO2 T02520208 10346 20252 403600230
KGLE 210535Z AUTO 12003KT 10SM CLR 26/21 A3005 RMK AO2 T02550210
KGLE 210515Z AUTO 11004KT 10SM CLR 26/21 A3005 RMK AO2 T02600210
KGLE 210455Z AUTO 11003KT 10SM CLR 27/21 A3005 RMK AO2 T02650210
KGLE 210435Z AUTO 12004KT 10SM CLR 27/21 A3005 RMK AO2 T02710208
KGLE 210415Z AUTO 11005KT 10SM CLR 28/21 A3004 RMK AO2 T02750208
KGLE 210355Z AUTO 11005KT 10SM CLR 28/21 A3004 RMK AO2 T02810207
KGLE 210335Z AUTO 11006KT 10SM CLR 29/21 A3004 RMK AO2 T02850206
KGLE 210315Z AUTO 11006KT 10SM CLR 29/20 A3003 RMK AO2 T02870203
KGLE 210255Z AUTO 10007KT 10SM CLR 30/20 A3002 RMK AO2 T02950200
KGLE 210235Z AUTO 10007KT 10SM CLR 30/20 A3002 RMK AO2 T02950198
KGLE 210215Z AUTO 10006KT 10SM CLR 30/20 A3001 RMK AO2 T02970198
KGLE 210155Z AUTO 10006KT 10SM CLR 30/20 A3000 RMK AO2 T03010198
KGLE 210135Z AUTO 10007KT 10SM CLR 31/20 A3000 RMK AO2 T03100200
KGLE 210115Z AUTO 11006KT 10SM CLR 32/20 A3000 RMK AO2 T03200200
KGLE 210055Z AUTO 10008KT 10SM CLR 33/20 A3000 RMK AO2 T03270201
KGLE 210035Z AUTO 12009KT 10SM CLR 34/17 A2999 RMK AO2 T03370173
KGLE 210015Z AUTO 11007KT 10SM CLR 34/19 A2999 RMK AO2 T03420185
KGLE 202355Z AUTO 11007KT 10SM CLR 35/19 A2999 RMK AO2 T03460193 10360 20341
KGLE 202335Z AUTO 12007KT 10SM CLR 35/19 A3000 RMK AO2 T03500191
KGLE 202315Z AUTO 13006KT 10SM CLR 35/20 A3000 RMK AO2 T03510196
KGLE 202255Z AUTO 13009KT 10SM CLR 35/20 A3001 RMK AO2 T03540200
KGLE 202235Z AUTO 13008KT 10SM CLR 36/20 A3001 RMK AO2 T03550201
KGLE 202215Z AUTO 13007KT 10SM CLR 36/19 A3002 RMK AO2 T03550194
KGLE 202155Z AUTO 13011KT 10SM SCT070 SCT100 36/20 A3003 RMK AO2 T03570198
KGLE 202135Z AUTO 17006KT 10SM SCT070 SCT100 36/19 A3003 RMK AO2 T03580194
KGLE 202115Z AUTO 14007KT 10SM SCT070 SCT095 36/20 A3004 RMK AO2 T03550198
KGLE 202055Z AUTO 13005KT 10SM SCT070 BKN095 36/20 A3004 RMK AO2 T03600202
KGLE 202035Z AUTO 13007KT 10SM SCT070 35/20 A3005 RMK AO2 T03500200
KGLE 202015Z AUTO 18006KT 10SM SCT075 36/20 A3006 RMK AO2 T03580199
KGLE 201955Z AUTO 15007KT 10SM SCT060 35/20 A3007 RMK AO2 T03540201
KGLE 201935Z AUTO 19008KT 10SM SCT060 36/20 A3007 RMK AO2 T03550201
KGLE 201915Z AUTO 14008KT 10SM SCT060 35/21 A3008 RMK AO2 T03530208
KGLE 201855Z AUTO 13008KT 10SM SCT060 35/21 A3008 RMK AO2 T03510209
KGLE 201835Z AUTO 18007KT 10SM CLR 35/21 A3010 RMK AO2 T03500206
KGLE 201815Z AUTO 16005G14KT 10SM CLR 35/21 A3010 RMK AO2 T03450213
KGLE 201755Z AUTO 17008KT 10SM CLR 34/21 A3011 RMK AO2 T03430206 10344 20236
KGLE 201735Z AUTO 19007G10KT 10SM CLR 34/21 A3012 RMK AO2 T03410214
KGLE 201715Z AUTO 20011KT 10SM CLR 34/21 A3013 RMK AO2 T03370212